createdAt,value
2022-10-13T00:01:37.360Z,11.70
2022-10-13T00:04:40.422Z,13.57
2022-10-13T00:07:43.418Z,12.30
2022-10-13T00:10:48.017Z,10.75
2022-10-13T00:13:53.184Z,9.18
2022-10-13T00:16:57.032Z,7.88
2022-10-13T00:20:00.235Z,7.47
2022-10-13T00:23:03.225Z,6.70
2022-10-13T00:26:09.137Z,7.15
2022-10-13T00:29:12.163Z,13.57
2022-10-13T00:32:15.272Z,18.88
2022-10-13T00:35:18.447Z,17.90
2022-10-13T00:38:22.816Z,15.63
2022-10-13T00:41:26.030Z,16.00
2022-10-13T00:45:01.575Z,11.40
2022-10-13T00:48:04.773Z,13.77
2022-10-13T00:51:08.839Z,15.85
2022-10-13T00:54:18.009Z,13.43
2022-10-13T00:57:21.592Z,13.00
2022-10-13T01:00:25.098Z,14.60
2022-10-13T01:03:28.623Z,15.20
2022-10-13T01:06:31.877Z,17.38
2022-10-13T01:09:42.888Z,17.10
2022-10-13T01:12:57.646Z,17.52
2022-10-13T01:16:12.698Z,17.25
2022-10-13T01:19:45.881Z,12.52
2022-10-13T01:23:01.678Z,15.25
2022-10-13T01:26:38.713Z,8.82
2022-10-13T01:30:03.365Z,6.30
2022-10-13T01:33:34.360Z,15.35
2022-10-13T01:36:47.709Z,13.10
2022-10-13T01:39:58.528Z,16.67
2022-10-13T01:43:25.883Z,15.13
2022-10-13T01:46:33.149Z,15.82
2022-10-13T01:49:37.091Z,16.48
2022-10-13T01:52:40.998Z,16.47
2022-10-13T01:56:10.272Z,16.00
2022-10-13T01:59:17.647Z,16.38
2022-10-13T02:02:32.994Z,18.70
2022-10-13T02:05:50.749Z,18.13
2022-10-13T02:08:57.650Z,19.08
2022-10-13T02:12:10.784Z,19.98
2022-10-13T02:15:20.342Z,17.27
2022-10-13T02:18:29.131Z,19.08
2022-10-13T02:21:32.989Z,18.50
2022-10-13T02:24:38.293Z,18.08
2022-10-13T02:27:42.371Z,17.33
2022-10-13T02:30:46.734Z,19.33
2022-10-13T02:33:49.713Z,16.70
2022-10-13T02:36:53.095Z,17.50
2022-10-13T02:39:56.013Z,15.63
2022-10-13T02:42:59.055Z,12.18
2022-10-13T02:46:02.037Z,8.02
2022-10-13T02:49:05.147Z,5.57
2022-10-13T02:52:08.535Z,6.18
2022-10-13T02:55:13.763Z,5.65
2022-10-13T02:58:17.638Z,5.97
2022-10-13T03:01:20.697Z,5.63
2022-10-13T03:04:23.700Z,6.70
2022-10-13T03:07:28.850Z,6.05
2022-10-13T03:10:32.656Z,5.72
2022-10-13T03:13:37.251Z,5.93
2022-10-13T03:16:42.327Z,5.53
2022-10-13T03:19:46.329Z,6.47
2022-10-13T03:22:53.414Z,5.88
2022-10-13T03:25:56.895Z,6.03
2022-10-13T03:28:59.970Z,5.53
2022-10-13T03:32:03.177Z,5.35
2022-10-13T03:35:07.015Z,5.40
2022-10-13T03:38:10.051Z,3.22
2022-10-13T03:41:16.051Z,3.25
2022-10-13T03:44:21.007Z,3.13
2022-10-13T03:47:24.239Z,2.67
2022-10-13T03:50:27.446Z,3.80
2022-10-13T03:53:30.736Z,3.13
2022-10-13T03:56:33.676Z,3.40
2022-10-13T03:59:37.066Z,3.03
2022-10-13T04:02:40.264Z,3.30
2022-10-13T04:05:43.939Z,12.75
2022-10-13T04:08:47.148Z,3.03
2022-10-13T04:11:53.409Z,3.00
2022-10-13T04:14:56.434Z,3.22
2022-10-13T04:17:59.487Z,2.90
2022-10-13T04:21:02.542Z,3.03
2022-10-13T04:24:06.319Z,2.50
2022-10-13T04:27:09.434Z,2.47
2022-10-13T04:30:13.701Z,2.55
2022-10-13T04:33:16.767Z,2.58
2022-10-13T04:36:20.265Z,2.55
2022-10-13T04:39:25.917Z,2.50
2022-10-13T04:42:28.968Z,2.42
2022-10-13T04:45:31.935Z,2.40
2022-10-13T04:48:34.957Z,2.60
2022-10-13T04:51:38.769Z,2.28
2022-10-13T04:54:42.934Z,2.47
2022-10-13T04:57:46.077Z,2.45
2022-10-13T05:00:49.150Z,2.30
2022-10-13T05:03:57.095Z,4.22
2022-10-13T05:07:17.166Z,2.55
2022-10-13T05:10:21.578Z,3.20
2022-10-13T05:13:25.829Z,2.60
2022-10-13T05:16:33.168Z,2.55
2022-10-13T05:19:36.108Z,2.88
2022-10-13T05:22:39.318Z,2.20
2022-10-13T05:25:42.360Z,2.15
2022-10-13T05:28:48.887Z,2.45
2022-10-13T05:31:52.028Z,2.22
2022-10-13T05:34:58.472Z,2.00
2022-10-13T05:38:01.443Z,2.53
2022-10-13T05:41:06.705Z,1.95
2022-10-13T05:44:10.497Z,2.10
2022-10-13T05:47:19.384Z,2.60
2022-10-13T05:50:22.453Z,2.85
2022-10-13T05:53:32.631Z,2.85
2022-10-13T05:56:47.007Z,1.75
2022-10-13T06:00:10.803Z,1.80
2022-10-13T06:03:21.766Z,1.70
2022-10-13T06:06:31.154Z,2.00
2022-10-13T06:09:38.398Z,1.52
2022-10-13T06:12:41.367Z,9.45
2022-10-13T06:15:44.448Z,1.88
2022-10-13T06:18:47.747Z,1.67
2022-10-13T06:21:50.800Z,1.20
2022-10-13T06:24:53.873Z,1.17
2022-10-13T06:28:01.153Z,1.40
2022-10-13T06:31:07.234Z,1.17
2022-10-13T06:34:10.148Z,1.83
2022-10-13T06:37:13.184Z,1.20
2022-10-13T06:40:17.263Z,1.35
2022-10-13T06:43:20.212Z,1.90
2022-10-13T06:46:26.360Z,1.52
2022-10-13T06:49:29.319Z,2.22
2022-10-13T06:52:32.373Z,2.30
2022-10-13T06:55:35.646Z,1.20
2022-10-13T06:58:38.993Z,1.70
2022-10-13T07:01:42.097Z,1.40
2022-10-13T07:04:48.467Z,1.90
2022-10-13T07:07:54.638Z,3.35
2022-10-13T07:10:58.398Z,1.60
2022-10-13T07:17:04.732Z,1.80
2022-10-13T07:20:08.722Z,1.98
2022-10-13T07:23:11.815Z,1.87
2022-10-13T07:26:16.742Z,1.40
2022-10-13T07:32:23.080Z,1.52
2022-10-13T07:35:30.493Z,1.20
2022-10-13T07:38:35.342Z,1.08
2022-10-13T07:41:38.787Z,1.23
2022-10-13T07:44:41.858Z,1.40
2022-10-13T07:47:44.876Z,6.15
2022-10-13T07:50:47.990Z,2.20
2022-10-13T07:53:50.981Z,2.67
2022-10-13T07:56:55.897Z,2.50
2022-10-13T07:59:59.226Z,3.15
2022-10-13T08:03:02.289Z,3.20
2022-10-13T08:06:06.570Z,7.45
2022-10-13T08:09:10.408Z,5.28
2022-10-13T08:12:13.642Z,5.82
2022-10-13T08:15:19.669Z,5.80
2022-10-13T08:18:22.640Z,4.80
2022-10-13T08:21:53.311Z,5.13
2022-10-13T08:24:51.616Z,5.88
2022-10-13T08:27:58.199Z,3.90
2022-10-13T08:31:03.438Z,3.30
2022-10-13T08:34:06.663Z,3.60
2022-10-13T08:37:15.624Z,4.97
2022-10-13T08:40:23.519Z,3.30
2022-10-13T08:43:27.361Z,4.03
2022-10-13T08:46:39.659Z,2.58
2022-10-13T08:49:44.398Z,2.70
2022-10-13T08:52:56.022Z,2.72
2022-10-13T08:56:00.797Z,2.85
2022-10-13T08:59:05.779Z,3.97
2022-10-13T09:02:30.681Z,3.30
2022-10-13T09:05:51.574Z,4.45
2022-10-13T09:08:58.109Z,4.50
2022-10-13T09:12:01.250Z,3.97
2022-10-13T09:15:10.545Z,3.97
2022-10-13T09:18:14.699Z,3.38
2022-10-13T09:21:24.865Z,3.70
2022-10-13T09:24:28.316Z,4.95
2022-10-13T09:28:02.344Z,4.97
2022-10-13T09:31:14.504Z,3.42
2022-10-13T09:34:20.522Z,4.97
2022-10-13T09:37:26.320Z,3.33
2022-10-13T09:40:32.332Z,3.88
2022-10-13T09:43:40.126Z,7.93
2022-10-13T09:46:58.174Z,4.47
2022-10-13T09:50:17.700Z,4.75
2022-10-13T09:53:23.820Z,3.78
2022-10-13T09:56:39.760Z,4.30
2022-10-13T10:00:10.981Z,4.43
2022-10-13T10:03:35.273Z,3.55
2022-10-13T10:06:40.994Z,3.10
2022-10-13T10:09:52.087Z,3.58
2022-10-13T10:12:55.249Z,3.10
2022-10-13T10:16:11.912Z,3.00
2022-10-13T10:19:31.191Z,3.17
2022-10-13T10:22:52.327Z,2.90
2022-10-13T10:26:07.360Z,3.15
2022-10-13T10:29:34.701Z,3.30
2022-10-13T10:32:53.260Z,2.85
2022-10-13T10:36:17.542Z,3.08
2022-10-13T10:39:52.815Z,3.28
2022-10-13T10:43:23.074Z,3.70
2022-10-13T10:46:31.360Z,4.30
2022-10-13T10:49:40.041Z,5.00
2022-10-13T10:52:58.572Z,3.80
2022-10-13T10:56:40.355Z,3.92
2022-10-13T11:00:06.456Z,3.50
2022-10-13T11:03:48.245Z,3.65
2022-10-13T11:06:51.310Z,3.63
2022-10-13T11:09:58.008Z,3.25
2022-10-13T11:13:01.093Z,4.30
2022-10-13T11:16:29.388Z,3.55
2022-10-13T11:19:38.000Z,3.67
2022-10-13T11:22:41.231Z,3.28
2022-10-13T11:25:49.479Z,4.13
2022-10-13T11:28:52.701Z,4.70
2022-10-13T11:31:56.149Z,3.67
2022-10-13T11:35:06.234Z,4.07
2022-10-13T11:38:26.922Z,3.10
2022-10-13T11:41:37.845Z,3.50
2022-10-13T11:45:25.649Z,4.35
2022-10-13T11:48:40.677Z,14.57
2022-10-13T11:51:52.999Z,8.77
2022-10-13T11:55:27.380Z,15.85
2022-10-13T11:58:34.951Z,10.57
2022-10-13T12:01:44.631Z,9.73
2022-10-13T12:05:07.992Z,7.78
2022-10-13T12:08:14.844Z,4.75
2022-10-13T12:11:30.396Z,8.80
2022-10-13T12:14:40.581Z,5.00
2022-10-13T12:17:45.293Z,8.10
2022-10-13T12:20:56.650Z,5.78
2022-10-13T12:24:09.087Z,6.30
2022-10-13T12:27:22.123Z,5.25
2022-10-13T12:30:39.032Z,5.50
2022-10-13T12:33:42.198Z,4.93
2022-10-13T12:36:47.320Z,7.28
2022-10-13T12:39:50.718Z,7.05
2022-10-13T12:42:54.705Z,10.60
2022-10-13T12:45:58.037Z,9.50
2022-10-13T12:49:32.205Z,7.88
2022-10-13T12:52:35.507Z,5.85
2022-10-13T12:55:59.570Z,7.20
2022-10-13T12:59:02.743Z,9.35
2022-10-13T13:02:38.862Z,8.75
2022-10-13T13:05:51.935Z,14.63
2022-10-13T13:09:15.655Z,9.82
2022-10-13T13:12:27.209Z,9.85
2022-10-13T13:15:36.765Z,11.13
2022-10-13T13:18:42.872Z,12.07
2022-10-13T13:21:45.920Z,12.82
2022-10-13T13:24:51.732Z,15.95
2022-10-13T13:27:55.915Z,12.05
2022-10-13T13:30:59.434Z,13.02
2022-10-13T13:34:02.405Z,12.85
2022-10-13T13:37:05.499Z,13.15
2022-10-13T13:40:15.355Z,13.93
2022-10-13T13:43:18.562Z,14.35
2022-10-13T13:46:24.372Z,12.95
2022-10-13T13:49:27.344Z,11.32
2022-10-13T13:52:30.348Z,11.13
2022-10-13T13:55:33.677Z,11.07
2022-10-13T13:58:36.936Z,9.65
2022-10-13T14:01:41.422Z,10.82
2022-10-13T14:04:45.051Z,11.60
2022-10-13T14:07:48.189Z,2.90
2022-10-13T14:10:51.295Z,3.72
2022-10-13T14:13:54.282Z,2.60
2022-10-13T14:17:04.338Z,1.60
2022-10-13T14:20:08.315Z,1.90
2022-10-13T14:23:13.889Z,1.73
2022-10-13T14:26:17.113Z,5.85
2022-10-13T14:29:20.467Z,5.60
2022-10-13T14:32:23.537Z,4.40
2022-10-13T14:35:27.010Z,4.32
2022-10-13T14:38:30.323Z,3.67
2022-10-13T14:41:33.445Z,3.38
2022-10-13T14:44:36.594Z,4.50
2022-10-13T14:47:41.471Z,5.13
2022-10-13T14:50:45.143Z,6.32
2022-10-13T14:53:48.238Z,13.73
2022-10-13T14:56:51.856Z,5.97
2022-10-13T14:59:58.007Z,6.57
2022-10-13T15:03:05.476Z,5.40
2022-10-13T15:06:11.163Z,6.55
2022-10-13T15:09:14.228Z,3.67
2022-10-13T15:12:17.513Z,3.38
2022-10-13T15:15:20.947Z,2.78
2022-10-13T15:18:28.372Z,2.65
2022-10-13T15:21:38.658Z,2.70
2022-10-13T15:24:42.126Z,2.90
2022-10-13T15:27:45.212Z,2.78
2022-10-13T15:30:48.184Z,2.78
2022-10-13T15:33:54.456Z,4.22
2022-10-13T15:36:58.956Z,3.22
2022-10-13T15:40:01.935Z,6.15
2022-10-13T15:43:05.680Z,8.43
2022-10-13T15:46:11.937Z,15.05
2022-10-13T15:49:14.880Z,10.95
2022-10-13T15:52:18.435Z,13.13
2022-10-13T15:55:21.709Z,16.02
2022-10-13T15:58:24.696Z,16.33
2022-10-13T16:01:27.634Z,17.85
2022-10-13T16:04:34.869Z,15.95
2022-10-13T16:07:41.840Z,17.73
2022-10-13T16:10:45.090Z,16.83
2022-10-13T16:13:49.950Z,15.55
2022-10-13T16:16:52.918Z,13.13
2022-10-13T16:19:56.150Z,11.95
2022-10-13T16:22:59.212Z,11.45
2022-10-13T16:26:06.585Z,10.85
2022-10-13T16:29:09.589Z,10.45
2022-10-13T16:32:12.634Z,10.10
2022-10-13T16:35:15.775Z,8.57
2022-10-13T16:38:18.777Z,8.15
2022-10-13T16:41:22.060Z,7.18
2022-10-13T16:44:25.388Z,7.45
2022-10-13T16:47:28.477Z,6.75
2022-10-13T16:50:31.406Z,5.88
2022-10-13T16:53:35.103Z,5.53
2022-10-13T16:56:38.159Z,4.95
2022-10-13T16:59:41.672Z,4.97
2022-10-13T17:02:44.659Z,4.60
2022-10-13T17:05:47.661Z,4.72
2022-10-13T17:08:50.703Z,4.45
2022-10-13T17:11:53.786Z,4.25
2022-10-13T17:14:57.015Z,3.92
2022-10-13T17:17:59.991Z,4.13
2022-10-13T17:21:06.186Z,4.63
2022-10-13T17:24:09.504Z,5.13
2022-10-13T17:27:12.508Z,4.90
2022-10-13T17:30:15.705Z,4.95
2022-10-13T17:33:18.703Z,4.82
2022-10-13T17:36:29.984Z,3.58
2022-10-13T17:39:35.061Z,3.85
2022-10-13T17:42:39.096Z,4.43
2022-10-13T17:45:42.130Z,4.90
2022-10-13T17:48:45.892Z,5.22
2022-10-13T17:51:53.005Z,4.78
2022-10-13T17:54:56.519Z,5.90
2022-10-13T17:58:00.682Z,5.60
2022-10-13T18:01:13.281Z,4.95
2022-10-13T18:04:19.572Z,5.88
2022-10-13T18:07:22.953Z,5.43
2022-10-13T18:10:26.082Z,6.07
2022-10-13T18:16:34.047Z,5.80
2022-10-13T18:19:40.215Z,5.57
2022-10-13T18:22:43.559Z,5.25
2022-10-13T18:25:46.564Z,5.50
2022-10-13T18:28:50.473Z,5.43
2022-10-13T18:31:59.279Z,5.43
2022-10-13T18:35:02.306Z,6.25
2022-10-13T18:38:05.569Z,5.20
2022-10-13T18:41:14.830Z,5.53
2022-10-13T18:44:20.527Z,5.55
2022-10-13T18:47:23.773Z,4.63
2022-10-13T18:50:27.854Z,4.43
2022-10-13T18:53:33.074Z,5.03
2022-10-13T18:56:39.527Z,4.85
2022-10-13T18:59:42.865Z,5.10
2022-10-13T19:02:45.965Z,5.15
2022-10-13T19:05:49.343Z,4.65
2022-10-13T19:08:52.382Z,4.70
2022-10-13T19:11:58.286Z,4.85
2022-10-13T19:15:01.236Z,4.32
2022-10-13T19:18:04.786Z,4.68
2022-10-13T19:21:08.300Z,5.07
2022-10-13T19:24:11.391Z,4.65
2022-10-13T19:27:14.431Z,4.80
2022-10-13T19:30:17.521Z,4.90
2022-10-13T19:33:21.733Z,5.65
2022-10-13T19:36:37.988Z,5.80
2022-10-13T19:39:41.113Z,5.65
2022-10-13T19:42:44.129Z,5.88
2022-10-13T19:45:59.786Z,5.00
2022-10-13T19:49:04.041Z,5.75
2022-10-13T19:52:07.453Z,5.33
2022-10-13T19:55:14.183Z,4.78
2022-10-13T19:58:17.775Z,5.00
2022-10-13T20:01:21.779Z,5.07
2022-10-13T20:04:24.971Z,5.30
2022-10-13T20:07:27.986Z,4.97
2022-10-13T20:10:31.053Z,4.55
2022-10-13T20:13:34.012Z,4.97
2022-10-13T20:16:38.432Z,5.05
2022-10-13T20:19:41.667Z,5.00
2022-10-13T20:22:44.682Z,4.25
2022-10-13T20:25:48.286Z,4.25
2022-10-13T20:28:52.560Z,4.68
2022-10-13T20:31:55.614Z,4.05
2022-10-13T20:34:58.670Z,4.15
2022-10-13T20:38:01.729Z,4.93
2022-10-13T20:41:10.710Z,3.50
2022-10-13T20:44:13.703Z,3.92
2022-10-13T20:47:16.676Z,4.38
2022-10-13T20:50:19.737Z,4.53
2022-10-13T20:53:22.710Z,4.55
2022-10-13T20:56:26.978Z,4.70
2022-10-13T20:59:29.966Z,4.20
2022-10-13T21:02:33.517Z,4.22
2022-10-13T21:05:36.504Z,4.07
2022-10-13T21:08:40.245Z,4.50
2022-10-13T21:11:43.332Z,4.85
2022-10-13T21:14:46.480Z,4.55
2022-10-13T21:17:50.106Z,3.65
2022-10-13T21:20:53.162Z,3.60
2022-10-13T21:23:58.832Z,3.95
2022-10-13T21:27:01.801Z,3.47
2022-10-13T21:30:06.129Z,3.50
2022-10-13T21:33:09.136Z,3.60
2022-10-13T21:36:15.664Z,3.40
2022-10-13T21:39:19.257Z,3.65
2022-10-13T21:42:22.724Z,3.40
2022-10-13T21:45:25.732Z,4.07
2022-10-13T21:48:28.721Z,3.55
2022-10-13T21:51:34.823Z,3.40
2022-10-13T21:54:38.203Z,3.75
2022-10-13T21:57:41.175Z,3.65
2022-10-13T22:00:44.372Z,3.60
2022-10-13T22:03:48.808Z,4.00
2022-10-13T22:06:55.130Z,3.17
2022-10-13T22:10:00.945Z,3.92
2022-10-13T22:13:03.952Z,4.30
2022-10-13T22:16:09.204Z,4.93
2022-10-13T22:19:18.223Z,5.50
2022-10-13T22:22:21.235Z,4.97
2022-10-13T22:25:24.378Z,4.80
2022-10-13T22:28:27.727Z,4.13
2022-10-13T22:31:31.290Z,4.43
2022-10-13T22:34:34.652Z,4.65
2022-10-13T22:37:37.679Z,4.05
2022-10-13T22:40:41.446Z,10.02
2022-10-13T22:43:48.486Z,5.65
2022-10-13T22:46:51.491Z,4.93
2022-10-13T22:49:54.542Z,6.15
2022-10-13T22:52:57.792Z,42.67
2022-10-13T22:56:01.608Z,5.78
2022-10-13T22:59:07.221Z,4.93
2022-10-13T23:02:10.344Z,6.10
2022-10-13T23:05:14.738Z,8.55
2022-10-13T23:08:17.947Z,6.32
2022-10-13T23:11:21.259Z,5.13
2022-10-13T23:14:24.257Z,5.00
2022-10-13T23:17:27.211Z,4.53
2022-10-13T23:20:30.954Z,5.00
2022-10-13T23:23:34.662Z,5.18
2022-10-13T23:26:37.673Z,4.30
2022-10-13T23:29:40.698Z,4.75
2022-10-13T23:32:43.781Z,4.20
2022-10-13T23:35:55.252Z,4.18
2022-10-13T23:39:00.687Z,4.18
2022-10-13T23:42:03.861Z,3.58
2022-10-13T23:45:07.248Z,5.45
2022-10-13T23:48:10.254Z,4.13
2022-10-13T23:51:19.050Z,3.33
2022-10-13T23:54:22.079Z,3.30
2022-10-13T23:57:25.180Z,3.40
